Time;durP1;ratioP1;P1;durP2;ratioP2;P2;SDS_P1;SDS_P2;PMS_P1;PMS_P2;Temp;Humidity;BMP_temperature;BMP_pressure;BME280_temperature;BME280_humidity;BME280_pressure;Samples;Min_cycle;Max_cycle;Signal;HPM_P1;HPM_P2
2022/10/17 00:00:53;;;;;;;49.37;35.77;;;18.20;90.40;;;;;;5011939;28;20190;-68
2022/10/17 00:03:20;;;;;;;46.00;34.80;;;18.20;90.30;;;;;;5005260;28;20202;-68
2022/10/17 00:05:48;;;;;;;52.50;36.33;;;18.20;90.60;;;;;;5007763;28;20214;-68
2022/10/17 00:08:16;;;;;;;51.57;34.07;;;18.10;90.20;;;;;;5004198;28;20595;-68
2022/10/17 00:10:44;;;;;;;47.87;34.60;;;18.10;90.10;;;;;;5004645;28;20633;-68
2022/10/17 00:13:11;;;;;;;45.60;34.43;;;18.10;90.10;;;;;;5003391;28;20244;-68
2022/10/17 00:15:43;;;;;;;46.03;34.17;;;18.10;90.00;;;;;;5004721;28;20197;-68
2022/10/17 00:18:10;;;;;;;48.23;35.17;;;18.10;89.80;;;;;;5005736;28;20611;-68
2022/10/17 00:20:37;;;;;;;45.80;34.73;;;18.00;89.70;;;;;;5010921;28;20562;-68
2022/10/17 00:23:04;;;;;;;49.60;36.47;;;18.00;89.80;;;;;;5002413;28;20202;-68
2022/10/17 00:25:31;;;;;;;48.87;34.70;;;17.90;89.80;;;;;;5001398;28;20325;-68
2022/10/17 00:27:58;;;;;;;48.23;34.27;;;17.90;90.00;;;;;;4998639;28;20531;-68
2022/10/17 00:30:25;;;;;;;53.57;35.80;;;17.90;90.10;;;;;;5005857;28;20211;-68
2022/10/17 00:32:52;;;;;;;51.57;36.23;;;17.90;90.10;;;;;;5003216;28;20638;-68
2022/10/17 00:35:19;;;;;;;52.23;36.90;;;17.80;90.10;;;;;;5006926;28;20209;-69
2022/10/17 00:37:47;;;;;;;49.17;36.50;;;17.80;90.30;;;;;;5010278;28;20764;-69
2022/10/17 00:40:14;;;;;;;51.60;37.80;;;17.80;90.40;;;;;;5009216;28;20209;-68
2022/10/17 00:42:41;;;;;;;46.83;34.83;;;17.80;90.50;;;;;;5005925;28;20210;-68
2022/10/17 00:45:19;;;;;;;38.93;27.87;;;17.70;90.50;;;;;;5004353;28;20197;-68
2022/10/17 00:47:50;;;;;;;33.07;25.23;;;17.70;90.40;;;;;;5004557;28;20203;-68
2022/10/17 00:50:19;;;;;;;40.93;27.87;;;17.70;90.30;;;;;;5012663;28;20213;-68
2022/10/17 00:52:46;;;;;;;39.03;27.80;;;17.70;90.30;;;;;;5005508;28;20289;-68
2022/10/17 00:55:18;;;;;;;62.43;39.87;;;17.70;90.20;;;;;;5004184;28;20610;-68
2022/10/17 00:57:46;;;;;;;59.43;38.93;;;17.60;90.10;;;;;;5034089;28;20550;-68
2022/10/17 01:00:14;;;;;;;53.87;37.37;;;17.60;90.00;;;;;;5004392;28;20203;-68
2022/10/17 01:02:41;;;;;;;55.77;38.70;;;17.50;90.20;;;;;;5012996;28;20202;-68
2022/10/17 01:05:10;;;;;;;48.57;34.90;;;17.50;90.40;;;;;;5006398;28;20216;-68
2022/10/17 01:07:39;;;;;;;54.03;38.00;;;17.40;90.50;;;;;;5008149;28;20299;-68
2022/10/17 01:10:07;;;;;;;57.90;36.90;;;17.40;90.50;;;;;;5006478;28;20220;-68
2022/10/17 01:12:49;;;;;;;52.13;37.47;;;17.40;90.50;;;;;;5003782;28;20241;-68
2022/10/17 01:15:34;;;;;;;48.90;35.90;;;17.40;90.60;;;;;;5018427;28;20213;-68
2022/10/17 01:18:35;;;;;;;52.73;35.77;;;17.30;90.60;;;;;;5005407;28;20218;-68
2022/10/17 01:21:11;;;;;;;46.43;34.67;;;17.30;90.80;;;;;;5012420;28;20248;-69
2022/10/17 01:24:12;;;;;;;48.73;35.53;;;17.20;90.50;;;;;;5007721;28;20194;-68
2022/10/17 01:26:53;;;;;;;50.30;35.27;;;17.20;90.60;;;;;;5003748;28;20201;-68
2022/10/17 01:29:55;;;;;;;47.87;35.00;;;17.10;90.70;;;;;;5002024;28;20216;-68
2022/10/17 01:32:39;;;;;;;58.20;34.33;;;17.10;90.60;;;;;;5003716;28;20259;-68
2022/10/17 01:35:16;;;;;;;239.03;35.93;;;17.10;90.50;;;;;;5011999;28;20240;-69
2022/10/17 01:37:52;;;;;;;162.50;39.57;;;17.00;90.60;;;;;;5011670;28;20314;-68
2022/10/17 01:40:36;;;;;;;151.00;38.73;;;17.00;90.80;;;;;;4993910;28;20212;-68
2022/10/17 01:43:11;;;;;;;73.63;40.23;;;16.90;91.00;;;;;;5002607;28;20210;-68
2022/10/17 01:45:44;;;;;;;82.30;38.27;;;16.90;91.20;;;;;;5005433;28;20651;-68
2022/10/17 01:48:19;;;;;;;103.50;38.17;;;16.90;91.40;;;;;;5003857;28;20315;-68
2022/10/17 01:51:00;;;;;;;241.93;41.23;;;16.90;91.50;;;;;;4993494;28;20211;-68
2022/10/17 01:53:33;;;;;;;346.03;50.77;;;16.90;91.70;;;;;;5006383;28;20209;-68
2022/10/17 01:56:05;;;;;;;112.10;53.27;;;16.90;91.60;;;;;;5017041;28;20261;-68
2022/10/17 01:58:40;;;;;;;92.67;52.40;;;16.90;91.60;;;;;;5003025;28;20230;-68
2022/10/17 02:01:10;;;;;;;123.23;49.73;;;16.80;91.70;;;;;;5005297;28;20207;-68
2022/10/17 02:03:41;;;;;;;161.20;41.27;;;16.80;91.90;;;;;;5005937;28;20267;-68
2022/10/17 02:06:08;;;;;;;196.00;44.07;;;16.80;91.90;;;;;;5006681;28;20258;-68
2022/10/17 02:08:42;;;;;;;105.40;49.73;;;16.80;92.00;;;;;;5002652;28;20694;-68
2022/10/17 02:11:25;;;;;;;102.50;47.57;;;16.80;92.10;;;;;;5000791;28;20200;-68
2022/10/17 02:14:24;;;;;;;101.67;49.67;;;16.80;92.10;;;;;;5009744;28;20199;-68
2022/10/17 02:17:08;;;;;;;87.73;50.47;;;16.80;92.20;;;;;;5038650;28;20220;-68
2022/10/17 02:19:47;;;;;;;89.17;48.30;;;16.80;92.20;;;;;;5002032;28;20282;-68
2022/10/17 02:22:24;;;;;;;100.97;41.60;;;16.80;92.20;;;;;;5009618;28;20618;-68
2022/10/17 02:25:06;;;;;;;89.93;39.93;;;16.80;92.30;;;;;;5011314;28;20261;-68
2022/10/17 02:27:44;;;;;;;104.50;38.37;;;16.80;92.40;;;;;;5003347;28;20201;-68
2022/10/17 02:30:20;;;;;;;82.57;36.47;;;16.90;92.60;;;;;;5003206;28;20216;-68
2022/10/17 02:33:13;;;;;;;65.80;35.43;;;16.90;92.70;;;;;;5004111;28;20232;-68
2022/10/17 02:35:45;;;;;;;68.93;35.00;;;16.90;92.80;;;;;;5016667;28;20205;-68
2022/10/17 02:38:14;;;;;;;66.80;35.00;;;16.90;92.80;;;;;;5019172;28;20220;-68
2022/10/17 02:40:44;;;;;;;87.47;37.27;;;16.90;92.90;;;;;;5004223;28;20213;-68
2022/10/17 02:43:13;;;;;;;81.23;41.30;;;16.90;93.00;;;;;;4999383;28;20235;-68
2022/10/17 02:45:40;;;;;;;80.63;38.37;;;16.90;93.00;;;;;;4992946;28;20209;-68
2022/10/17 02:48:34;;;;;;;67.37;33.33;;;17.00;93.00;;;;;;5003938;28;20212;-68
2022/10/17 02:51:10;;;;;;;87.87;32.40;;;17.00;93.00;;;;;;5009099;28;20201;-68
2022/10/17 02:53:52;;;;;;;63.60;32.77;;;17.00;93.00;;;;;;5000668;28;20211;-68
2022/10/17 02:56:20;;;;;;;74.60;32.23;;;17.00;93.10;;;;;;5000981;28;20204;-68
2022/10/17 02:58:52;;;;;;;114.67;31.53;;;17.00;93.10;;;;;;5001895;28;20224;-68
2022/10/17 03:01:20;;;;;;;59.83;30.27;;;17.00;93.10;;;;;;5007197;28;20266;-68
2022/10/17 03:03:47;;;;;;;76.17;29.70;;;17.00;93.10;;;;;;5033699;28;20253;-68
2022/10/17 03:06:15;;;;;;;99.03;29.80;;;17.00;93.10;;;;;;5011611;28;20254;-68
2022/10/17 03:08:42;;;;;;;72.87;28.40;;;17.00;93.00;;;;;;5006585;28;20526;-68
2022/10/17 03:11:09;;;;;;;48.70;28.77;;;17.00;93.00;;;;;;5008304;28;20278;-68
2022/10/17 03:13:36;;;;;;;60.17;30.60;;;17.00;93.00;;;;;;5005146;28;20216;-68
2022/10/17 03:16:06;;;;;;;59.33;29.40;;;16.90;93.00;;;;;;4993438;28;20663;-68
2022/10/17 03:18:33;;;;;;;83.67;29.87;;;16.90;93.00;;;;;;5000511;28;20239;-68
2022/10/17 03:21:02;;;;;;;43.20;27.07;;;16.90;93.00;;;;;;5008660;28;20241;-68
2022/10/17 03:23:29;;;;;;;34.43;26.77;;;16.80;92.90;;;;;;5007957;28;20216;-68
2022/10/17 03:25:56;;;;;;;40.70;28.37;;;16.80;92.80;;;;;;5008867;28;20236;-68
2022/10/17 03:28:23;;;;;;;42.93;26.63;;;16.70;92.70;;;;;;5004493;28;20555;-68
2022/10/17 03:30:50;;;;;;;39.67;26.80;;;16.70;92.70;;;;;;5004181;28;20238;-68
2022/10/17 03:33:17;;;;;;;32.63;26.97;;;16.70;92.70;;;;;;5006192;28;20577;-68
2022/10/17 03:35:44;;;;;;;39.70;29.53;;;16.60;92.60;;;;;;5006630;28;20654;-68
2022/10/17 03:38:12;;;;;;;35.10;28.30;;;16.60;92.50;;;;;;5014533;28;20228;-68
2022/10/17 03:40:39;;;;;;;41.10;29.17;;;16.50;92.50;;;;;;5010583;28;20236;-68
2022/10/17 03:43:06;;;;;;;31.67;26.77;;;16.50;92.40;;;;;;4997528;28;20214;-68
2022/10/17 03:45:33;;;;;;;31.97;26.60;;;16.40;92.30;;;;;;5022324;28;20582;-69
2022/10/17 03:48:00;;;;;;;36.20;29.43;;;16.40;92.20;;;;;;5013252;28;20204;-68
2022/10/17 03:50:28;;;;;;;35.73;28.33;;;16.30;92.00;;;;;;5012160;28;20211;-68
2022/10/17 03:52:57;;;;;;;40.77;26.87;;;16.30;92.00;;;;;;5023402;28;20197;-68
2022/10/17 03:55:24;;;;;;;37.83;26.43;;;16.30;92.00;;;;;;5010411;28;20552;-68
2022/10/17 03:57:51;;;;;;;34.20;26.07;;;16.20;91.90;;;;;;5020279;28;20216;-68
2022/10/17 04:00:20;;;;;;;28.50;25.23;;;16.20;91.90;;;;;;5007083;28;20221;-68
2022/10/17 04:02:53;;;;;;;32.87;25.10;;;16.10;92.00;;;;;;5009670;28;20236;-68
2022/10/17 04:05:20;;;;;;;27.67;24.53;;;16.10;92.10;;;;;;5003671;28;20204;-68
2022/10/17 04:07:47;;;;;;;29.23;25.60;;;16.00;92.10;;;;;;5008300;28;20200;-68
2022/10/17 04:10:16;;;;;;;26.07;23.37;;;16.00;92.20;;;;;;5009721;28;20208;-68
2022/10/17 04:12:43;;;;;;;27.13;24.17;;;15.90;92.30;;;;;;5007448;28;20217;-68
2022/10/17 04:15:11;;;;;;;180.33;24.97;;;15.90;92.30;;;;;;5005080;28;20208;-68
2022/10/17 04:17:39;;;;;;;26.87;23.17;;;15.90;92.30;;;;;;5010010;28;20672;-68
2022/10/17 04:20:07;;;;;;;28.20;25.17;;;15.80;92.20;;;;;;5012796;28;20250;-68
2022/10/17 04:22:34;;;;;;;27.80;24.23;;;15.80;92.30;;;;;;5011541;28;20209;-68
2022/10/17 04:25:03;;;;;;;26.17;22.87;;;15.80;92.30;;;;;;5010693;28;20212;-68
2022/10/17 04:27:35;;;;;;;29.50;24.93;;;15.80;92.20;;;;;;5001171;28;20651;-68
2022/10/17 04:30:02;;;;;;;37.30;31.10;;;15.80;92.20;;;;;;5005107;28;20213;-68
2022/10/17 04:32:36;;;;;;;43.80;32.97;;;15.80;92.20;;;;;;5021419;28;20239;-68
2022/10/17 04:35:18;;;;;;;53.43;32.60;;;15.80;92.10;;;;;;5003496;28;20790;-68
2022/10/17 04:37:50;;;;;;;42.37;25.83;;;15.80;92.10;;;;;;5010345;28;20319;-69
2022/10/17 04:40:19;;;;;;;37.40;22.77;;;15.70;92.20;;;;;;5038007;28;20299;-69
2022/10/17 04:42:46;;;;;;;42.37;23.10;;;15.70;92.40;;;;;;5009567;28;20206;-68
2022/10/17 04:45:18;;;;;;;31.27;24.50;;;15.70;92.40;;;;;;5005084;28;20208;-68
2022/10/17 04:47:47;;;;;;;53.50;23.70;;;15.70;92.50;;;;;;5012718;28;20211;-68
2022/10/17 04:50:15;;;;;;;39.47;23.70;;;15.70;92.40;;;;;;5004213;28;20216;-68
2022/10/17 04:52:59;;;;;;;31.47;21.43;;;15.70;92.40;;;;;;5010408;28;20233;-69
2022/10/17 04:55:26;;;;;;;28.83;20.70;;;15.60;92.40;;;;;;5002976;28;20208;-68
2022/10/17 04:57:54;;;;;;;23.40;19.77;;;15.60;92.50;;;;;;5012456;28;20227;-68
2022/10/17 05:00:21;;;;;;;24.97;22.27;;;15.60;92.60;;;;;;5011817;28;20227;-68
2022/10/17 05:02:57;;;;;;;27.93;24.80;;;15.60;92.50;;;;;;4992570;28;20199;-68
2022/10/17 05:05:25;;;;;;;26.27;23.57;;;15.50;92.40;;;;;;5008888;28;20555;-68
2022/10/17 05:07:54;;;;;;;26.20;23.47;;;15.50;92.30;;;;;;5012262;28;20291;-68
2022/10/17 05:10:24;;;;;;;24.57;22.03;;;15.50;92.20;;;;;;5010581;28;20262;-71
2022/10/17 05:12:52;;;;;;;25.77;23.07;;;15.50;92.10;;;;;;5009936;28;20324;-70
2022/10/17 05:15:22;;;;;;;26.43;23.67;;;15.40;92.10;;;;;;5004742;28;20204;-68
2022/10/17 05:17:54;;;;;;;27.63;24.33;;;15.50;92.10;;;;;;5008188;28;20255;-70
2022/10/17 05:20:23;;;;;;;26.90;24.20;;;15.40;92.00;;;;;;5017850;28;20326;-69
2022/10/17 05:22:50;;;;;;;66.03;24.47;;;15.40;92.00;;;;;;5002946;28;20553;-68
2022/10/17 05:25:18;;;;;;;53.23;21.87;;;15.40;92.00;;;;;;5012800;28;20308;-68
2022/10/17 05:27:45;;;;;;;33.20;27.37;;;15.30;91.70;;;;;;5002496;28;20203;-68
2022/10/17 05:30:13;;;;;;;29.30;26.23;;;15.30;91.70;;;;;;5015647;28;20244;-69
2022/10/17 05:32:41;;;;;;;25.20;22.70;;;15.20;91.50;;;;;;5018873;28;20642;-68
2022/10/17 05:35:08;;;;;;;32.50;22.43;;;15.20;91.70;;;;;;5010748;28;20214;-68
2022/10/17 05:37:37;;;;;;;26.73;21.00;;;15.20;91.80;;;;;;5014980;28;20285;-68
2022/10/17 05:40:05;;;;;;;36.27;22.23;;;15.20;91.90;;;;;;5012339;28;20208;-68
2022/10/17 05:42:32;;;;;;;51.23;23.57;;;15.20;92.10;;;;;;5011489;28;20209;-68
2022/10/17 05:45:00;;;;;;;25.90;23.30;;;15.20;92.20;;;;;;4993512;28;20228;-68
2022/10/17 05:47:28;;;;;;;26.93;24.23;;;15.20;92.30;;;;;;5011062;28;20231;-68
2022/10/17 05:49:56;;;;;;;29.60;26.60;;;15.20;92.40;;;;;;5006010;28;20208;-68
2022/10/17 05:52:30;;;;;;;26.43;23.73;;;15.20;92.40;;;;;;5003759;28;20556;-68
2022/10/17 05:55:05;;;;;;;23.47;21.13;;;15.20;92.30;;;;;;5007985;28;20200;-68
2022/10/17 05:57:32;;;;;;;23.43;19.77;;;15.20;92.30;;;;;;5012387;28;20200;-68
2022/10/17 06:00:01;;;;;;;34.50;20.87;;;15.20;92.30;;;;;;4998475;28;20219;-68
2022/10/17 06:02:40;;;;;;;31.33;20.63;;;15.30;92.30;;;;;;5006361;28;20200;-68
2022/10/17 06:05:08;;;;;;;27.27;20.97;;;15.20;92.30;;;;;;4997803;28;20216;-68
2022/10/17 06:07:36;;;;;;;36.80;21.63;;;15.20;92.70;;;;;;5003753;28;20231;-68
2022/10/17 06:10:05;;;;;;;28.00;18.93;;;15.30;92.40;;;;;;5009817;28;20208;-68
2022/10/17 06:12:33;;;;;;;25.97;18.90;;;15.30;92.40;;;;;;5010007;28;20254;-68
2022/10/17 06:15:00;;;;;;;20.00;18.10;;;15.30;92.40;;;;;;4989571;28;20215;-68
2022/10/17 06:17:29;;;;;;;19.40;17.60;;;15.30;92.50;;;;;;4999222;28;20201;-68
2022/10/17 06:19:57;;;;;;;20.40;18.40;;;15.40;92.60;;;;;;5006617;28;20267;-68
2022/10/17 06:22:24;;;;;;;22.50;19.83;;;15.40;92.60;;;;;;5003402;28;20222;-68
2022/10/17 06:24:52;;;;;;;23.10;20.10;;;15.50;92.60;;;;;;4992847;28;20208;-69
2022/10/17 06:27:20;;;;;;;22.47;20.10;;;15.50;92.50;;;;;;5011476;28;20299;-69
2022/10/17 06:29:47;;;;;;;23.33;20.83;;;15.50;92.50;;;;;;5009346;28;20269;-68
2022/10/17 06:32:16;;;;;;;22.47;20.27;;;15.60;92.40;;;;;;5032859;28;20216;-68
2022/10/17 06:34:45;;;;;;;22.60;19.90;;;15.60;92.40;;;;;;5003077;28;20258;-69
2022/10/17 06:37:13;;;;;;;21.90;19.70;;;15.70;92.40;;;;;;5006885;28;20215;-69
2022/10/17 06:39:41;;;;;;;25.60;21.63;;;15.70;92.40;;;;;;5005019;28;20270;-68
2022/10/17 06:42:17;;;;;;;23.27;20.87;;;15.80;92.40;;;;;;5007172;28;20216;-68
2022/10/17 06:45:08;;;;;;;23.23;20.93;;;15.80;92.30;;;;;;5005437;28;20316;-68
2022/10/17 06:47:58;;;;;;;24.73;22.20;;;15.90;92.20;;;;;;5007194;28;20223;-68
2022/10/17 06:50:51;;;;;;;23.70;21.20;;;15.90;92.20;;;;;;5010685;28;20550;-69
2022/10/17 06:53:29;;;;;;;26.97;21.07;;;16.00;92.20;;;;;;5007677;28;20230;-68
2022/10/17 06:56:23;;;;;;;23.20;20.17;;;16.10;92.00;;;;;;4998562;28;20657;-68
2022/10/17 06:59:10;;;;;;;22.80;20.43;;;16.20;92.00;;;;;;5003018;28;20238;-68
2022/10/17 07:01:39;;;;;;;20.80;18.73;;;16.30;92.00;;;;;;5035642;28;20208;-68
2022/10/17 07:04:12;;;;;;;20.07;18.00;;;16.50;91.90;;;;;;5000660;28;20525;-68
2022/10/17 07:06:39;;;;;;;19.80;17.80;;;16.60;91.70;;;;;;5004489;28;20536;-68
2022/10/17 07:09:19;;;;;;;20.33;18.23;;;16.80;91.40;;;;;;5010182;28;20211;-68
2022/10/17 07:11:47;;;;;;;21.37;19.27;;;16.90;91.10;;;;;;5011225;28;20287;-68
2022/10/17 07:14:17;;;;;;;22.37;19.97;;;17.10;90.90;;;;;;5003204;28;20200;-69
2022/10/17 07:16:45;;;;;;;28.80;21.97;;;17.20;90.80;;;;;;5009032;28;20219;-69
2022/10/17 07:19:21;;;;;;;27.13;21.47;;;17.30;90.70;;;;;;5008651;28;20219;-68
2022/10/17 07:21:49;;;;;;;33.40;24.37;;;17.40;90.60;;;;;;5006262;28;20280;-68
2022/10/17 07:24:16;;;;;;;37.80;26.70;;;17.50;90.50;;;;;;5011235;28;20216;-68
2022/10/17 07:26:51;;;;;;;33.83;25.77;;;17.60;90.50;;;;;;5010887;28;20219;-68
2022/10/17 07:29:19;;;;;;;39.30;27.23;;;17.70;90.60;;;;;;5009174;28;20204;-68
2022/10/17 07:32:24;;;;;;;43.17;26.27;;;17.80;90.50;;;;;;5034680;28;20275;-68
2022/10/17 07:34:52;;;;;;;38.03;24.57;;;17.90;90.30;;;;;;5018959;28;20216;-71
2022/10/17 07:37:19;;;;;;;30.77;23.23;;;18.00;90.20;;;;;;5009153;28;20525;-68
2022/10/17 07:39:52;;;;;;;28.57;22.50;;;18.10;90.20;;;;;;5012006;28;20245;-69
2022/10/17 07:42:19;;;;;;;37.67;27.53;;;18.30;90.10;;;;;;5017676;28;20208;-68
2022/10/17 07:44:46;;;;;;;40.73;28.03;;;18.40;89.90;;;;;;5011926;28;20209;-65
2022/10/17 07:47:13;;;;;;;37.63;26.63;;;18.50;89.40;;;;;;5012213;28;20202;-66
2022/10/17 07:49:42;;;;;;;38.07;26.00;;;18.60;88.90;;;;;;5013196;28;20219;-69
2022/10/17 07:52:11;;;;;;;38.70;26.33;;;18.60;88.40;;;;;;5013711;28;20640;-65
2022/10/17 07:54:38;;;;;;;41.17;28.33;;;18.70;88.00;;;;;;5005741;28;20203;-67
2022/10/17 07:57:05;;;;;;;44.80;29.20;;;18.80;87.50;;;;;;5010945;28;20227;-69
2022/10/17 07:59:33;;;;;;;43.63;29.27;;;18.90;87.00;;;;;;5003323;28;20308;-68
2022/10/17 08:02:00;;;;;;;38.80;27.37;;;18.90;86.50;;;;;;5005960;28;20212;-73
2022/10/17 08:04:28;;;;;;;44.57;28.30;;;19.00;86.20;;;;;;5007596;28;20227;-69
2022/10/17 08:06:55;;;;;;;39.00;28.30;;;19.00;85.80;;;;;;5001677;28;20574;-66
2022/10/17 08:09:37;;;;;;;40.07;27.77;;;19.00;85.50;;;;;;5007823;28;20212;-65
2022/10/17 08:12:04;;;;;;;45.27;28.33;;;19.00;85.30;;;;;;5004272;28;20217;-68
2022/10/17 08:14:31;;;;;;;45.17;27.93;;;19.00;85.30;;;;;;5005464;28;20259;-67
2022/10/17 08:16:58;;;;;;;38.13;24.63;;;19.00;85.40;;;;;;5003154;28;20202;-68
2022/10/17 08:19:25;;;;;;;39.53;25.83;;;19.10;85.20;;;;;;5004218;28;20619;-68
2022/10/17 08:21:53;;;;;;;41.67;27.13;;;19.00;84.90;;;;;;5004083;28;20240;-70
2022/10/17 08:24:20;;;;;;;42.90;27.23;;;19.00;85.00;;;;;;5001227;28;20222;-66
2022/10/17 08:26:47;;;;;;;47.27;28.80;;;19.00;85.10;;;;;;5004009;28;20199;-70
2022/10/17 08:29:18;;;;;;;47.50;28.53;;;19.10;85.10;;;;;;5003717;28;20214;-66
2022/10/17 08:31:45;;;;;;;42.37;26.93;;;19.10;84.90;;;;;;5008302;28;20206;-69
2022/10/17 08:34:14;;;;;;;39.33;27.40;;;19.20;85.00;;;;;;5006263;28;20332;-67
2022/10/17 08:36:41;;;;;;;43.67;27.63;;;19.30;84.80;;;;;;5001350;28;20237;-68
2022/10/17 08:39:08;;;;;;;35.30;25.77;;;19.50;84.40;;;;;;5007917;28;20233;-67
2022/10/17 08:41:54;;;;;;;42.37;28.17;;;19.60;83.90;;;;;;5005842;28;20203;-65
2022/10/17 08:44:36;;;;;;;36.30;25.70;;;19.80;83.10;;;;;;5002183;28;20629;-69
2022/10/17 08:47:08;;;;;;;33.43;25.07;;;20.00;82.70;;;;;;5003947;28;20198;-69
2022/10/17 08:49:40;;;;;;;33.40;26.10;;;20.10;82.30;;;;;;5005594;28;20223;-68
2022/10/17 08:52:36;;;;;;;28.77;23.43;;;20.30;81.80;;;;;;5002848;28;20204;-69
2022/10/17 08:55:13;;;;;;;28.87;22.07;;;20.40;81.10;;;;;;5004623;28;20200;-65
2022/10/17 08:57:41;;;;;;;28.43;21.80;;;20.60;80.70;;;;;;5003789;28;20278;-71
2022/10/17 09:00:18;;;;;;;22.90;20.10;;;20.80;80.10;;;;;;5004520;28;20602;-67
2022/10/17 09:03:15;;;;;;;29.60;22.63;;;20.90;79.40;;;;;;5006565;28;20187;-68
2022/10/17 09:05:52;;;;;;;28.80;23.70;;;21.00;78.80;;;;;;5014943;28;20272;-67
2022/10/17 09:08:28;;;;;;;31.80;23.73;;;21.10;78.50;;;;;;5007128;28;20585;-67
2022/10/17 09:11:21;;;;;;;28.40;24.37;;;21.20;77.90;;;;;;5004985;28;20636;-69
2022/10/17 09:13:53;;;;;;;28.07;23.20;;;21.30;77.30;;;;;;5003948;28;20234;-67
2022/10/17 09:17:07;;;;;;;30.40;24.43;;;21.40;77.20;;;;;;4999075;28;20204;-72
2022/10/17 09:19:44;;;;;;;35.40;27.50;;;21.50;77.20;;;;;;5022541;28;20248;-66
2022/10/17 09:22:19;;;;;;;34.10;27.33;;;21.50;77.00;;;;;;5026310;28;20289;-66
2022/10/17 09:25:08;;;;;;;40.37;29.27;;;21.60;76.70;;;;;;5011939;28;20289;-67
2022/10/17 09:27:45;;;;;;;40.80;31.07;;;21.70;76.60;;;;;;5000008;28;20537;-67
2022/10/17 09:30:32;;;;;;;41.13;31.00;;;21.80;76.20;;;;;;5001587;28;20629;-66
2022/10/17 09:33:12;;;;;;;48.93;33.00;;;21.90;75.80;;;;;;5001569;28;20530;-68
2022/10/17 09:36:03;;;;;;;45.40;33.57;;;22.00;75.40;;;;;;5005080;28;20283;-69
2022/10/17 09:38:43;;;;;;;45.67;32.87;;;22.00;75.60;;;;;;5003871;28;20246;-67
2022/10/17 09:41:21;;;;;;;46.10;33.53;;;22.10;75.50;;;;;;5000520;28;20236;-66
2022/10/17 09:44:22;;;;;;;41.70;33.00;;;22.20;75.10;;;;;;5001558;28;20207;-69
2022/10/17 09:47:10;;;;;;;45.13;33.97;;;22.20;75.30;;;;;;5012484;28;20285;-69
2022/10/17 09:49:43;;;;;;;44.93;33.10;;;22.20;75.40;;;;;;5001835;28;20204;-69
2022/10/17 09:52:18;;;;;;;48.87;34.47;;;22.30;75.30;;;;;;5000536;28;20208;-67
2022/10/17 09:55:11;;;;;;;47.10;35.23;;;22.30;74.70;;;;;;5002926;28;20548;-68
2022/10/17 09:58:02;;;;;;;54.40;35.30;;;22.40;74.70;;;;;;5007252;28;20585;-71
2022/10/17 10:00:41;;;;;;;50.03;35.43;;;22.50;74.20;;;;;;5012682;28;20224;-71
2022/10/17 10:03:12;;;;;;;50.07;36.67;;;22.50;74.10;;;;;;5005818;28;20195;-71
2022/10/17 10:05:40;;;;;;;50.30;36.30;;;22.60;74.20;;;;;;5008669;28;20579;-66
2022/10/17 10:08:18;;;;;;;47.07;35.50;;;22.60;73.90;;;;;;5003728;28;20208;-66
2022/10/17 10:10:45;;;;;;;45.27;34.43;;;22.70;73.80;;;;;;5004641;28;20617;-67
2022/10/17 10:13:12;;;;;;;47.17;35.67;;;22.80;73.90;;;;;;5002809;28;20263;-69
2022/10/17 10:15:41;;;;;;;49.30;34.87;;;23.00;73.80;;;;;;5000184;28;20236;-67
2022/10/17 10:18:23;;;;;;;45.70;35.10;;;23.10;73.30;;;;;;5002555;28;20280;-70
2022/10/17 10:21:03;;;;;;;47.77;34.43;;;23.20;72.80;;;;;;5002136;28;20322;-72
2022/10/17 10:23:30;;;;;;;48.63;35.73;;;23.40;72.50;;;;;;5001217;28;20200;-71
2022/10/17 10:26:14;;;;;;;48.63;36.30;;;23.50;71.80;;;;;;4995243;28;20211;-71
2022/10/17 10:29:04;;;;;;;47.43;35.97;;;23.50;70.60;;;;;;5000239;28;20283;-70
2022/10/17 10:31:37;;;;;;;48.63;36.83;;;23.60;71.20;;;;;;5004483;28;20622;-72
2022/10/17 10:34:25;;;;;;;45.63;35.57;;;23.60;70.50;;;;;;5002496;28;20199;-67
2022/10/17 10:37:00;;;;;;;46.30;33.90;;;23.70;70.30;;;;;;5002667;28;20196;-66
2022/10/17 10:39:30;;;;;;;47.17;35.17;;;23.80;69.40;;;;;;5004995;28;20222;-71
2022/10/17 10:42:02;;;;;;;48.87;33.67;;;23.80;69.60;;;;;;5002733;28;20197;-69
2022/10/17 10:44:31;;;;;;;44.70;35.33;;;23.90;69.90;;;;;;5000104;28;20201;-69
2022/10/17 10:47:20;;;;;;;47.10;34.83;;;24.00;69.90;;;;;;5004056;28;20227;-66
2022/10/17 10:49:52;;;;;;;47.10;35.10;;;24.20;69.20;;;;;;5002062;28;20207;-69
2022/10/17 10:52:44;;;;;;;49.10;36.00;;;24.30;68.70;;;;;;5005150;28;20200;-72
2022/10/17 10:55:29;;;;;;;47.30;36.20;;;24.40;68.30;;;;;;5004501;28;20274;-68
2022/10/17 10:58:02;;;;;;;48.13;36.30;;;24.50;67.90;;;;;;5001337;28;20606;-69
2022/10/17 11:00:33;;;;;;;48.67;35.63;;;24.60;67.40;;;;;;5000282;28;20223;-68
2022/10/17 11:03:18;;;;;;;48.60;33.50;;;24.70;66.80;;;;;;5006005;28;20227;-67
2022/10/17 11:06:02;;;;;;;45.30;32.90;;;24.80;66.10;;;;;;5010114;28;20202;-67
2022/10/17 11:08:56;;;;;;;51.93;34.13;;;24.80;65.60;;;;;;5001961;28;20283;-66
2022/10/17 11:11:38;;;;;;;45.40;33.80;;;24.80;65.70;;;;;;5001257;28;20689;-68
2022/10/17 11:14:31;;;;;;;47.17;33.57;;;24.90;65.30;;;;;;5000411;28;20194;-65
2022/10/17 11:17:22;;;;;;;49.30;34.93;;;24.80;65.00;;;;;;5002052;28;20200;-66
2022/10/17 11:19:55;;;;;;;45.80;33.50;;;24.80;65.20;;;;;;5001506;28;20306;-69
2022/10/17 11:22:37;;;;;;;48.97;35.03;;;24.80;65.50;;;;;;5001558;28;20638;-66
2022/10/17 11:25:18;;;;;;;48.33;33.53;;;24.80;65.70;;;;;;5001965;28;20266;-65
2022/10/17 11:27:45;;;;;;;53.17;33.27;;;24.90;66.00;;;;;;5000314;28;20204;-69
2022/10/17 11:30:16;;;;;;;46.23;32.37;;;25.00;65.70;;;;;;4999587;28;20243;-69
2022/10/17 11:32:55;;;;;;;47.37;35.00;;;25.20;65.50;;;;;;5003405;28;20614;-70
2022/10/17 11:35:35;;;;;;;44.03;31.97;;;25.30;65.00;;;;;;5002164;28;20219;-69
2022/10/17 11:38:08;;;;;;;42.60;32.37;;;25.40;64.60;;;;;;5002177;28;20203;-69
2022/10/17 11:40:40;;;;;;;45.20;32.53;;;25.40;63.80;;;;;;5011360;28;20227;-69
2022/10/17 11:43:14;;;;;;;39.23;30.20;;;25.40;63.30;;;;;;5000553;28;20210;-69
2022/10/17 11:45:48;;;;;;;43.77;30.07;;;25.40;62.70;;;;;;5002140;28;20196;-69
2022/10/17 11:48:29;;;;;;;44.87;31.83;;;25.40;62.40;;;;;;5003797;28;20641;-69
2022/10/17 11:51:07;;;;;;;42.43;32.47;;;25.40;62.60;;;;;;5001796;28;20203;-69
2022/10/17 11:54:05;;;;;;;43.80;29.23;;;25.50;62.60;;;;;;5003277;28;20206;-69
2022/10/17 11:57:03;;;;;;;37.10;26.97;;;25.50;62.50;;;;;;5005818;28;20201;-69
2022/10/17 12:00:06;;;;;;;44.10;30.70;;;25.60;62.40;;;;;;5003071;28;20244;-69
2022/10/17 12:02:58;;;;;;;34.83;27.17;;;25.70;62.60;;;;;;5010714;28;20244;-69
2022/10/17 12:05:38;;;;;;;37.27;27.27;;;25.70;62.20;;;;;;5007504;28;20196;-69
2022/10/17 12:08:23;;;;;;;38.43;26.97;;;25.80;61.80;;;;;;5003146;28;20204;-69
2022/10/17 12:11:02;;;;;;;33.20;24.47;;;25.90;61.80;;;;;;5004656;28;20318;-69
2022/10/17 12:13:33;;;;;;;36.60;26.73;;;25.90;61.80;;;;;;5000611;28;20199;-69
2022/10/17 12:16:19;;;;;;;33.57;25.40;;;26.00;61.80;;;;;;5003354;28;20277;-69
2022/10/17 12:18:49;;;;;;;39.40;26.30;;;26.10;61.50;;;;;;5004140;28;20219;-69
2022/10/17 12:21:16;;;;;;;31.27;24.97;;;26.20;61.20;;;;;;5004874;28;20252;-69
2022/10/17 12:23:52;;;;;;;32.17;25.43;;;26.30;61.10;;;;;;5005728;28;20294;-69
2022/10/17 12:26:27;;;;;;;39.33;25.13;;;26.30;60.40;;;;;;5005444;28;20196;-69
2022/10/17 12:28:55;;;;;;;30.00;21.10;;;26.30;60.30;;;;;;5004170;28;20200;-70
2022/10/17 12:31:24;;;;;;;29.17;21.47;;;26.30;60.30;;;;;;5004331;28;20199;-70
2022/10/17 12:34:00;;;;;;;26.10;19.37;;;26.30;59.90;;;;;;5006737;28;20220;-70
2022/10/17 12:36:36;;;;;;;23.67;17.27;;;26.30;59.70;;;;;;5006374;28;20233;-69
2022/10/17 12:39:05;;;;;;;23.03;17.07;;;26.30;59.10;;;;;;5003185;28;20273;-69
2022/10/17 12:41:38;;;;;;;21.30;16.73;;;26.40;59.00;;;;;;5003072;28;20195;-69
2022/10/17 12:44:12;;;;;;;21.63;16.97;;;26.40;58.10;;;;;;5002749;28;20209;-69
2022/10/17 12:46:57;;;;;;;21.10;15.83;;;26.40;57.20;;;;;;5007241;28;20197;-69
2022/10/17 12:49:46;;;;;;;25.40;19.63;;;26.30;56.50;;;;;;5005442;28;20201;-70
2022/10/17 12:52:31;;;;;;;20.33;16.60;;;26.20;56.80;;;;;;5005386;28;20203;-70
2022/10/17 12:55:12;;;;;;;21.17;16.50;;;26.10;57.20;;;;;;5005481;28;20261;-70
2022/10/17 12:57:55;;;;;;;23.23;16.03;;;26.00;57.60;;;;;;5004275;28;20196;-70
2022/10/17 13:00:34;;;;;;;21.30;15.90;;;26.10;57.20;;;;;;5004026;28;20222;-70